Terminal Aerodrome Forecast
Issued by NWS

Home | Current Version | Previous Version | Text Only | Print | Product List | Glossary On
Versions: 1 2 3 4 5 6 7 8 9 10 11 12 13 14
000
FTUS42 KGSP 300520
TAFAND
TAF
KAND 300520Z 3006/3106 00000KT P6SM BKN100
     FM301600 13007KT P6SM BKN060
     FM302100 06006KT P6SM VCSH BKN040
     FM302300 05006KT P6SM VCSH OVC029
     FM310100 06004KT P6SM OVC020=

USA.gov is the U.S. government's official web portal to all federal, state and local government web resources and services.